createdAt,value
2019-05-20T00:02:33.852Z,40.8
2019-05-20T00:05:40.407Z,40.9
2019-05-20T00:08:47.413Z,40.9
2019-05-20T00:11:54.395Z,40.9
2019-05-20T00:15:00.560Z,41
2019-05-20T00:18:06.731Z,41
2019-05-20T00:21:13.082Z,40.9
2019-05-20T00:24:19.464Z,41
2019-05-20T00:27:25.722Z,40.7
2019-05-20T00:30:31.897Z,40.8
2019-05-20T00:33:38.115Z,40.8
2019-05-20T00:36:44.426Z,40.4
2019-05-20T00:39:50.915Z,40.7
2019-05-20T00:42:57.265Z,40.2
2019-05-20T00:46:03.543Z,40.2
2019-05-20T00:49:09.906Z,40
2019-05-20T00:52:16.067Z,39.9
2019-05-20T00:55:25.096Z,39.9
2019-05-20T00:58:31.373Z,39.9
2019-05-20T01:01:37.620Z,39.6
2019-05-20T01:04:43.903Z,39.6
2019-05-20T01:07:50.018Z,39.5
2019-05-20T01:10:56.326Z,39.5
2019-05-20T01:14:02.670Z,39.4
2019-05-20T01:17:08.794Z,39.4
2019-05-20T01:20:15.026Z,39.4
2019-05-20T01:23:21.396Z,39.4
2019-05-20T01:26:30.323Z,39.2
2019-05-20T01:29:36.589Z,39.3
2019-05-20T01:32:42.861Z,39.2
2019-05-20T01:35:49.017Z,39.3
2019-05-20T01:38:55.152Z,39.1
2019-05-20T01:42:01.353Z,39.3
2019-05-20T01:45:07.523Z,39.1
2019-05-20T01:48:13.705Z,39.1
2019-05-20T01:51:19.942Z,39.4
2019-05-20T01:54:26.121Z,39.3
2019-05-20T01:57:32.392Z,39.3
2019-05-20T02:00:38.570Z,39.4
2019-05-20T02:03:44.801Z,39.5
2019-05-20T02:06:53.640Z,39.5
2019-05-20T02:09:59.997Z,39.6
2019-05-20T02:13:06.154Z,39.7
2019-05-20T02:16:12.326Z,40
2019-05-20T02:19:18.509Z,39.9
2019-05-20T02:22:24.638Z,40
2019-05-20T02:25:30.929Z,39.9
2019-05-20T02:28:37.080Z,39.8
2019-05-20T02:31:43.328Z,39.7
2019-05-20T02:34:49.621Z,39.8
2019-05-20T02:37:56.099Z,39.8
2019-05-20T02:41:02.292Z,39.5
2019-05-20T02:44:08.526Z,39.5
2019-05-20T02:47:14.802Z,39.5
2019-05-20T02:50:21.077Z,39.3
2019-05-20T02:53:27.199Z,39.5
2019-05-20T02:56:33.751Z,39.5
2019-05-20T02:59:39.964Z,39.4
2019-05-20T03:02:46.125Z,39.2
2019-05-20T03:05:52.391Z,39.2
2019-05-20T03:08:58.524Z,39
2019-05-20T03:12:04.724Z,39
2019-05-20T03:15:10.991Z,38.9
2019-05-20T03:18:17.271Z,38.9
2019-05-20T03:21:23.630Z,38.9
2019-05-20T03:24:29.914Z,38.8
2019-05-20T03:27:36.056Z,38.8
2019-05-20T03:30:42.340Z,38.8
2019-05-20T03:33:48.679Z,38.6
2019-05-20T03:36:54.856Z,38.7
2019-05-20T03:40:01.049Z,38.9
2019-05-20T03:43:07.181Z,38.7
2019-05-20T03:46:16.735Z,38.8
2019-05-20T03:49:22.962Z,38.7
2019-05-20T03:52:29.140Z,38.7
2019-05-20T03:55:35.332Z,38.7
2019-05-20T03:58:41.597Z,38.6
2019-05-20T04:01:47.963Z,38.6
2019-05-20T04:05:03.680Z,38.6
2019-05-20T04:08:10.121Z,38.6
2019-05-20T04:11:16.388Z,38.6
2019-05-20T04:14:22.765Z,38.5
2019-05-20T04:17:28.977Z,38.5
2019-05-20T04:20:35.193Z,38.4
2019-05-20T04:23:41.560Z,38.2
2019-05-20T04:26:47.836Z,38.2
2019-05-20T04:29:54.090Z,38.3
2019-05-20T12:41:00.940Z,38.4
2019-05-20T12:44:13.733Z,36.1
2019-05-20T12:47:20.099Z,36.1
2019-05-20T12:50:26.568Z,36.3
2019-05-20T12:53:32.910Z,36.2
2019-05-20T12:56:39.371Z,36.6
2019-05-20T12:59:45.639Z,36.3
2019-05-20T13:02:51.895Z,36.2
2019-05-20T13:05:58.421Z,36.6
